sensor_id;sensor_type;location;lat;lon;timestamp;temperature;humidity
80937;DHT22;70395;51.382;7.074;2024-02-14T00:02:24;11.10;61.10
80937;DHT22;70395;51.382;7.074;2024-02-14T00:04:54;11.10;61.60
80937;DHT22;70395;51.382;7.074;2024-02-14T00:07:21;11.10;61.60
80937;DHT22;70395;51.382;7.074;2024-02-14T00:09:47;11.10;61.60
80937;DHT22;70395;51.382;7.074;2024-02-14T00:12:13;11.10;61.40
80937;DHT22;70395;51.382;7.074;2024-02-14T00:14:40;11.10;61.40
80937;DHT22;70395;51.382;7.074;2024-02-14T00:17:06;11.10;61.30
80937;DHT22;70395;51.382;7.074;2024-02-14T00:19:32;11.10;61.30
80937;DHT22;70395;51.382;7.074;2024-02-14T00:21:58;11.10;61.80
80937;DHT22;70395;51.382;7.074;2024-02-14T00:24:24;11.10;61.90
80937;DHT22;70395;51.382;7.074;2024-02-14T00:26:52;11.10;62.50
80937;DHT22;70395;51.382;7.074;2024-02-14T00:29:18;11.00;63.60
80937;DHT22;70395;51.382;7.074;2024-02-14T00:31:44;11.00;64.10
80937;DHT22;70395;51.382;7.074;2024-02-14T00:34:10;10.90;65.00
80937;DHT22;70395;51.382;7.074;2024-02-14T00:36:36;10.90;64.80
80937;DHT22;70395;51.382;7.074;2024-02-14T00:39:02;10.80;64.90
80937;DHT22;70395;51.382;7.074;2024-02-14T00:41:28;10.70;65.20
80937;DHT22;70395;51.382;7.074;2024-02-14T00:43:56;10.60;65.50
80937;DHT22;70395;51.382;7.074;2024-02-14T00:46:22;10.60;65.90
80937;DHT22;70395;51.382;7.074;2024-02-14T00:48:48;10.50;66.00
80937;DHT22;70395;51.382;7.074;2024-02-14T00:51:13;10.40;66.00
80937;DHT22;70395;51.382;7.074;2024-02-14T00:53:39;10.40;66.90
80937;DHT22;70395;51.382;7.074;2024-02-14T00:56:05;10.40;66.80
80937;DHT22;70395;51.382;7.074;2024-02-14T00:58:31;10.30;66.90
80937;DHT22;70395;51.382;7.074;2024-02-14T01:00:57;10.30;67.50
80937;DHT22;70395;51.382;7.074;2024-02-14T01:03:23;10.30;67.50
80937;DHT22;70395;51.382;7.074;2024-02-14T01:05:50;10.20;67.60
80937;DHT22;70395;51.382;7.074;2024-02-14T01:08:16;10.20;67.90
80937;DHT22;70395;51.382;7.074;2024-02-14T01:10:42;10.20;68.00
80937;DHT22;70395;51.382;7.074;2024-02-14T01:13:08;10.20;68.30
80937;DHT22;70395;51.382;7.074;2024-02-14T01:15:34;10.20;68.00
80937;DHT22;70395;51.382;7.074;2024-02-14T01:18:00;10.20;67.90
80937;DHT22;70395;51.382;7.074;2024-02-14T01:20:26;10.20;67.80
80937;DHT22;70395;51.382;7.074;2024-02-14T01:22:51;10.20;68.20
80937;DHT22;70395;51.382;7.074;2024-02-14T01:25:18;10.20;67.70
80937;DHT22;70395;51.382;7.074;2024-02-14T01:27:43;10.20;68.00
80937;DHT22;70395;51.382;7.074;2024-02-14T01:30:11;10.20;68.50
80937;DHT22;70395;51.382;7.074;2024-02-14T01:32:37;10.10;68.80
80937;DHT22;70395;51.382;7.074;2024-02-14T01:35:04;10.10;68.70
80937;DHT22;70395;51.382;7.074;2024-02-14T01:37:30;10.10;69.00
80937;DHT22;70395;51.382;7.074;2024-02-14T01:39:56;10.10;69.20
80937;DHT22;70395;51.382;7.074;2024-02-14T01:42:22;10.10;69.20
80937;DHT22;70395;51.382;7.074;2024-02-14T01:44:48;10.10;69.20
80937;DHT22;70395;51.382;7.074;2024-02-14T01:47:14;10.10;69.20
80937;DHT22;70395;51.382;7.074;2024-02-14T01:49:40;10.20;69.20
80937;DHT22;70395;51.382;7.074;2024-02-14T01:52:09;10.20;69.30
80937;DHT22;70395;51.382;7.074;2024-02-14T01:54:36;10.20;69.30
80937;DHT22;70395;51.382;7.074;2024-02-14T01:57:02;10.20;69.40
80937;DHT22;70395;51.382;7.074;2024-02-14T01:59:29;10.20;69.20
80937;DHT22;70395;51.382;7.074;2024-02-14T02:01:55;10.30;69.20
80937;DHT22;70395;51.382;7.074;2024-02-14T02:04:22;10.30;69.60
80937;DHT22;70395;51.382;7.074;2024-02-14T02:06:48;10.30;69.40
80937;DHT22;70395;51.382;7.074;2024-02-14T02:09:22;10.30;69.30
80937;DHT22;70395;51.382;7.074;2024-02-14T02:11:49;10.40;69.20
80937;DHT22;70395;51.382;7.074;2024-02-14T02:14:16;10.40;69.20
80937;DHT22;70395;51.382;7.074;2024-02-14T02:16:42;10.40;69.10
80937;DHT22;70395;51.382;7.074;2024-02-14T02:19:09;10.50;69.20
80937;DHT22;70395;51.382;7.074;2024-02-14T02:21:38;10.50;69.00
80937;DHT22;70395;51.382;7.074;2024-02-14T02:24:04;10.50;68.80
80937;DHT22;70395;51.382;7.074;2024-02-14T02:26:30;10.50;68.80
80937;DHT22;70395;51.382;7.074;2024-02-14T02:28:56;10.50;68.50
80937;DHT22;70395;51.382;7.074;2024-02-14T02:31:22;10.60;68.50
80937;DHT22;70395;51.382;7.074;2024-02-14T02:33:48;10.60;68.10
80937;DHT22;70395;51.382;7.074;2024-02-14T02:36:15;10.70;68.10
80937;DHT22;70395;51.382;7.074;2024-02-14T02:38:42;10.70;67.80
80937;DHT22;70395;51.382;7.074;2024-02-14T02:41:08;10.70;67.50
80937;DHT22;70395;51.382;7.074;2024-02-14T02:43:34;10.80;67.50
80937;DHT22;70395;51.382;7.074;2024-02-14T02:46:01;10.80;67.40
80937;DHT22;70395;51.382;7.074;2024-02-14T02:48:27;10.90;67.20
80937;DHT22;70395;51.382;7.074;2024-02-14T02:50:53;10.90;67.20
80937;DHT22;70395;51.382;7.074;2024-02-14T02:53:19;10.90;67.00
80937;DHT22;70395;51.382;7.074;2024-02-14T02:55:46;11.00;67.00
80937;DHT22;70395;51.382;7.074;2024-02-14T02:58:12;11.00;66.80
80937;DHT22;70395;51.382;7.074;2024-02-14T03:00:39;11.10;66.90
80937;DHT22;70395;51.382;7.074;2024-02-14T03:03:08;11.10;66.90
80937;DHT22;70395;51.382;7.074;2024-02-14T03:05:34;11.10;66.60
80937;DHT22;70395;51.382;7.074;2024-02-14T03:08:00;11.20;66.40
80937;DHT22;70395;51.382;7.074;2024-02-14T03:10:26;11.20;66.30
80937;DHT22;70395;51.382;7.074;2024-02-14T03:12:53;11.20;66.30
80937;DHT22;70395;51.382;7.074;2024-02-14T03:15:19;11.30;66.40
80937;DHT22;70395;51.382;7.074;2024-02-14T03:17:45;11.30;66.90
80937;DHT22;70395;51.382;7.074;2024-02-14T03:20:12;11.30;66.70
80937;DHT22;70395;51.382;7.074;2024-02-14T03:22:40;11.30;66.80
80937;DHT22;70395;51.382;7.074;2024-02-14T03:25:20;11.30;67.00
80937;DHT22;70395;51.382;7.074;2024-02-14T03:27:46;11.30;67.40
80937;DHT22;70395;51.382;7.074;2024-02-14T03:30:15;11.30;67.20
80937;DHT22;70395;51.382;7.074;2024-02-14T03:32:45;11.30;67.40
80937;DHT22;70395;51.382;7.074;2024-02-14T03:35:13;11.30;67.60
80937;DHT22;70395;51.382;7.074;2024-02-14T03:37:43;11.20;67.50
80937;DHT22;70395;51.382;7.074;2024-02-14T03:40:13;11.20;67.90
80937;DHT22;70395;51.382;7.074;2024-02-14T03:42:39;11.30;68.10
80937;DHT22;70395;51.382;7.074;2024-02-14T03:45:06;11.30;68.20
80937;DHT22;70395;51.382;7.074;2024-02-14T03:47:33;11.20;68.20
80937;DHT22;70395;51.382;7.074;2024-02-14T03:49:59;11.20;68.80
80937;DHT22;70395;51.382;7.074;2024-02-14T03:52:25;11.20;69.30
80937;DHT22;70395;51.382;7.074;2024-02-14T03:54:52;11.20;69.30
80937;DHT22;70395;51.382;7.074;2024-02-14T03:57:18;11.20;69.60
80937;DHT22;70395;51.382;7.074;2024-02-14T03:59:44;11.20;70.10
80937;DHT22;70395;51.382;7.074;2024-02-14T04:02:10;11.20;69.90
80937;DHT22;70395;51.382;7.074;2024-02-14T04:04:37;11.20;69.80
80937;DHT22;70395;51.382;7.074;2024-02-14T04:07:05;11.10;70.10
80937;DHT22;70395;51.382;7.074;2024-02-14T04:09:33;11.10;70.50
80937;DHT22;70395;51.382;7.074;2024-02-14T04:11:59;11.10;70.60
80937;DHT22;70395;51.382;7.074;2024-02-14T04:14:25;11.10;70.50
80937;DHT22;70395;51.382;7.074;2024-02-14T04:16:51;11.10;70.50
80937;DHT22;70395;51.382;7.074;2024-02-14T04:19:17;11.10;70.60
80937;DHT22;70395;51.382;7.074;2024-02-14T04:21:43;11.20;70.40
80937;DHT22;70395;51.382;7.074;2024-02-14T04:24:09;11.20;70.30
80937;DHT22;70395;51.382;7.074;2024-02-14T04:26:35;11.20;70.60
80937;DHT22;70395;51.382;7.074;2024-02-14T04:29:01;11.20;70.70
80937;DHT22;70395;51.382;7.074;2024-02-14T04:31:28;11.30;70.60
80937;DHT22;70395;51.382;7.074;2024-02-14T04:33:55;11.30;70.50
80937;DHT22;70395;51.382;7.074;2024-02-14T04:36:21;11.40;70.90
80937;DHT22;70395;51.382;7.074;2024-02-14T04:38:50;11.40;70.80
80937;DHT22;70395;51.382;7.074;2024-02-14T04:41:17;11.40;70.60
80937;DHT22;70395;51.382;7.074;2024-02-14T04:43:43;11.50;70.50
80937;DHT22;70395;51.382;7.074;2024-02-14T04:46:09;11.50;70.40
80937;DHT22;70395;51.382;7.074;2024-02-14T04:48:35;11.50;70.20
80937;DHT22;70395;51.382;7.074;2024-02-14T04:51:03;11.60;70.30
80937;DHT22;70395;51.382;7.074;2024-02-14T04:53:32;11.60;70.10
80937;DHT22;70395;51.382;7.074;2024-02-14T04:55:58;11.60;70.30
80937;DHT22;70395;51.382;7.074;2024-02-14T04:58:24;11.70;70.30
80937;DHT22;70395;51.382;7.074;2024-02-14T05:00:52;11.70;70.20
80937;DHT22;70395;51.382;7.074;2024-02-14T05:03:20;11.70;70.30
80937;DHT22;70395;51.382;7.074;2024-02-14T05:05:46;11.70;70.40
80937;DHT22;70395;51.382;7.074;2024-02-14T05:08:12;11.70;70.40
80937;DHT22;70395;51.382;7.074;2024-02-14T05:10:38;11.70;70.20
80937;DHT22;70395;51.382;7.074;2024-02-14T05:13:04;11.70;70.10
80937;DHT22;70395;51.382;7.074;2024-02-14T05:15:30;11.80;70.20
80937;DHT22;70395;51.382;7.074;2024-02-14T05:17:56;11.80;70.10
80937;DHT22;70395;51.382;7.074;2024-02-14T05:20:22;11.80;70.00
80937;DHT22;70395;51.382;7.074;2024-02-14T05:22:47;11.90;70.00
80937;DHT22;70395;51.382;7.074;2024-02-14T05:25:13;11.90;70.00
80937;DHT22;70395;51.382;7.074;2024-02-14T05:27:39;11.90;70.00
80937;DHT22;70395;51.382;7.074;2024-02-14T05:30:05;11.90;70.10
80937;DHT22;70395;51.382;7.074;2024-02-14T05:32:32;11.90;70.00
80937;DHT22;70395;51.382;7.074;2024-02-14T05:34:58;11.90;70.00
80937;DHT22;70395;51.382;7.074;2024-02-14T05:37:25;11.90;70.10
80937;DHT22;70395;51.382;7.074;2024-02-14T05:39:55;11.90;70.50
80937;DHT22;70395;51.382;7.074;2024-02-14T05:42:21;11.90;70.60
80937;DHT22;70395;51.382;7.074;2024-02-14T05:44:48;12.00;70.60
80937;DHT22;70395;51.382;7.074;2024-02-14T05:47:14;11.90;70.50
80937;DHT22;70395;51.382;7.074;2024-02-14T05:49:40;11.90;71.00
80937;DHT22;70395;51.382;7.074;2024-02-14T05:52:08;11.80;71.20
80937;DHT22;70395;51.382;7.074;2024-02-14T05:54:34;11.80;71.20
80937;DHT22;70395;51.382;7.074;2024-02-14T05:57:00;11.80;71.20
80937;DHT22;70395;51.382;7.074;2024-02-14T05:59:28;11.80;71.20
80937;DHT22;70395;51.382;7.074;2024-02-14T06:01:54;11.80;71.40
80937;DHT22;70395;51.382;7.074;2024-02-14T06:04:20;11.80;71.30
80937;DHT22;70395;51.382;7.074;2024-02-14T06:06:46;11.80;71.50
80937;DHT22;70395;51.382;7.074;2024-02-14T06:09:11;11.90;71.40
80937;DHT22;70395;51.382;7.074;2024-02-14T06:11:38;11.80;71.80
80937;DHT22;70395;51.382;7.074;2024-02-14T06:14:08;11.80;72.10
80937;DHT22;70395;51.382;7.074;2024-02-14T06:16:34;11.80;72.30
80937;DHT22;70395;51.382;7.074;2024-02-14T06:19:01;11.90;72.30
80937;DHT22;70395;51.382;7.074;2024-02-14T06:21:27;11.90;72.40
80937;DHT22;70395;51.382;7.074;2024-02-14T06:23:53;11.90;72.70
80937;DHT22;70395;51.382;7.074;2024-02-14T06:26:19;11.90;72.50
80937;DHT22;70395;51.382;7.074;2024-02-14T06:28:45;12.00;72.60
80937;DHT22;70395;51.382;7.074;2024-02-14T06:31:11;12.00;72.60
80937;DHT22;70395;51.382;7.074;2024-02-14T06:33:37;12.00;72.40
80937;DHT22;70395;51.382;7.074;2024-02-14T06:36:03;12.10;72.30
80937;DHT22;70395;51.382;7.074;2024-02-14T06:38:31;12.10;72.50
80937;DHT22;70395;51.382;7.074;2024-02-14T06:40:57;12.10;72.90
80937;DHT22;70395;51.382;7.074;2024-02-14T06:43:22;12.10;72.70
80937;DHT22;70395;51.382;7.074;2024-02-14T06:45:48;12.10;72.70
80937;DHT22;70395;51.382;7.074;2024-02-14T06:48:14;12.10;72.70
80937;DHT22;70395;51.382;7.074;2024-02-14T06:50:40;12.10;72.90
80937;DHT22;70395;51.382;7.074;2024-02-14T06:53:06;12.10;72.60
80937;DHT22;70395;51.382;7.074;2024-02-14T06:55:32;12.10;72.80
80937;DHT22;70395;51.382;7.074;2024-02-14T06:57:59;12.10;72.90
80937;DHT22;70395;51.382;7.074;2024-02-14T07:00:25;12.10;73.00
80937;DHT22;70395;51.382;7.074;2024-02-14T07:02:51;12.10;73.00
80937;DHT22;70395;51.382;7.074;2024-02-14T07:05:17;12.10;72.90
80937;DHT22;70395;51.382;7.074;2024-02-14T07:07:43;12.10;73.00
80937;DHT22;70395;51.382;7.074;2024-02-14T07:10:09;12.10;73.00
80937;DHT22;70395;51.382;7.074;2024-02-14T07:12:35;12.20;73.00
80937;DHT22;70395;51.382;7.074;2024-02-14T07:15:04;12.20;72.90
80937;DHT22;70395;51.382;7.074;2024-02-14T07:17:31;12.30;73.00
80937;DHT22;70395;51.382;7.074;2024-02-14T07:19:58;12.20;72.90
80937;DHT22;70395;51.382;7.074;2024-02-14T07:22:24;12.30;72.90
80937;DHT22;70395;51.382;7.074;2024-02-14T07:24:49;12.30;72.60
80937;DHT22;70395;51.382;7.074;2024-02-14T07:27:15;12.40;72.60
80937;DHT22;70395;51.382;7.074;2024-02-14T07:29:44;12.40;72.70
80937;DHT22;70395;51.382;7.074;2024-02-14T07:32:10;12.40;72.50
80937;DHT22;70395;51.382;7.074;2024-02-14T07:34:38;12.40;72.50
80937;DHT22;70395;51.382;7.074;2024-02-14T07:37:05;12.40;72.40
80937;DHT22;70395;51.382;7.074;2024-02-14T07:39:32;12.40;72.20
80937;DHT22;70395;51.382;7.074;2024-02-14T07:42:03;12.50;72.40
80937;DHT22;70395;51.382;7.074;2024-02-14T07:44:30;12.50;72.50
80937;DHT22;70395;51.382;7.074;2024-02-14T07:46:56;12.50;72.60
80937;DHT22;70395;51.382;7.074;2024-02-14T07:49:22;12.50;72.50
80937;DHT22;70395;51.382;7.074;2024-02-14T07:51:48;12.50;72.50
80937;DHT22;70395;51.382;7.074;2024-02-14T07:54:14;12.50;72.40
80937;DHT22;70395;51.382;7.074;2024-02-14T07:56:40;12.50;72.40
80937;DHT22;70395;51.382;7.074;2024-02-14T07:59:05;12.50;72.50
80937;DHT22;70395;51.382;7.074;2024-02-14T08:01:31;12.50;72.60
80937;DHT22;70395;51.382;7.074;2024-02-14T08:04:00;12.50;72.40
80937;DHT22;70395;51.382;7.074;2024-02-14T08:06:26;12.50;72.50
80937;DHT22;70395;51.382;7.074;2024-02-14T08:08:52;12.50;72.50
80937;DHT22;70395;51.382;7.074;2024-02-14T08:11:22;12.50;72.40
80937;DHT22;70395;51.382;7.074;2024-02-14T08:13:48;12.60;72.40
80937;DHT22;70395;51.382;7.074;2024-02-14T08:16:14;12.60;72.20
80937;DHT22;70395;51.382;7.074;2024-02-14T08:18:40;12.60;72.10
80937;DHT22;70395;51.382;7.074;2024-02-14T08:21:09;12.60;72.00
80937;DHT22;70395;51.382;7.074;2024-02-14T08:23:36;12.60;71.90
80937;DHT22;70395;51.382;7.074;2024-02-14T08:26:04;12.70;71.90
80937;DHT22;70395;51.382;7.074;2024-02-14T08:28:36;12.70;71.90
80937;DHT22;70395;51.382;7.074;2024-02-14T08:31:03;12.70;71.70
80937;DHT22;70395;51.382;7.074;2024-02-14T08:33:29;12.70;71.70
80937;DHT22;70395;51.382;7.074;2024-02-14T08:35:55;12.80;71.60
80937;DHT22;70395;51.382;7.074;2024-02-14T08:38:23;12.80;71.60
80937;DHT22;70395;51.382;7.074;2024-02-14T08:40:48;12.80;71.40
80937;DHT22;70395;51.382;7.074;2024-02-14T08:43:14;12.80;71.40
80937;DHT22;70395;51.382;7.074;2024-02-14T08:45:41;12.90;71.60
80937;DHT22;70395;51.382;7.074;2024-02-14T08:48:07;12.90;71.70
80937;DHT22;70395;51.382;7.074;2024-02-14T08:50:32;13.00;71.50
80937;DHT22;70395;51.382;7.074;2024-02-14T08:52:58;13.00;71.30
80937;DHT22;70395;51.382;7.074;2024-02-14T08:55:24;13.00;71.40
80937;DHT22;70395;51.382;7.074;2024-02-14T08:57:50;13.10;71.40
80937;DHT22;70395;51.382;7.074;2024-02-14T09:00:16;13.10;71.40
80937;DHT22;70395;51.382;7.074;2024-02-14T09:02:45;13.10;71.10
80937;DHT22;70395;51.382;7.074;2024-02-14T09:05:15;13.10;71.00
80937;DHT22;70395;51.382;7.074;2024-02-14T09:07:42;13.10;71.10
80937;DHT22;70395;51.382;7.074;2024-02-14T09:10:09;13.10;71.00
80937;DHT22;70395;51.382;7.074;2024-02-14T09:12:38;13.10;71.00
80937;DHT22;70395;51.382;7.074;2024-02-14T09:15:07;13.10;71.00
80937;DHT22;70395;51.382;7.074;2024-02-14T09:17:33;13.10;70.70
80937;DHT22;70395;51.382;7.074;2024-02-14T09:19:59;13.20;70.90
80937;DHT22;70395;51.382;7.074;2024-02-14T09:22:25;13.20;70.60
80937;DHT22;70395;51.382;7.074;2024-02-14T09:24:51;13.20;70.40
80937;DHT22;70395;51.382;7.074;2024-02-14T09:27:17;13.30;70.30
80937;DHT22;70395;51.382;7.074;2024-02-14T09:29:43;13.30;70.30
80937;DHT22;70395;51.382;7.074;2024-02-14T09:32:09;13.30;70.50
80937;DHT22;70395;51.382;7.074;2024-02-14T09:34:35;13.30;70.50
80937;DHT22;70395;51.382;7.074;2024-02-14T09:37:01;13.30;70.50
80937;DHT22;70395;51.382;7.074;2024-02-14T09:39:26;13.30;70.60
80937;DHT22;70395;51.382;7.074;2024-02-14T09:41:54;13.30;70.60
80937;DHT22;70395;51.382;7.074;2024-02-14T09:44:27;13.20;70.70
80937;DHT22;70395;51.382;7.074;2024-02-14T09:46:55;13.20;70.70
80937;DHT22;70395;51.382;7.074;2024-02-14T09:49:22;13.10;70.90
80937;DHT22;70395;51.382;7.074;2024-02-14T09:51:50;13.10;71.10
80937;DHT22;70395;51.382;7.074;2024-02-14T09:54:17;13.10;71.40
80937;DHT22;70395;51.382;7.074;2024-02-14T09:56:53;13.10;71.50
80937;DHT22;70395;51.382;7.074;2024-02-14T09:59:23;13.10;71.80
80937;DHT22;70395;51.382;7.074;2024-02-14T10:01:49;13.10;72.10
80937;DHT22;70395;51.382;7.074;2024-02-14T10:04:17;13.10;71.80
80937;DHT22;70395;51.382;7.074;2024-02-14T10:06:45;13.10;72.00
80937;DHT22;70395;51.382;7.074;2024-02-14T10:09:11;13.10;72.10
80937;DHT22;70395;51.382;7.074;2024-02-14T10:11:37;13.10;72.00
80937;DHT22;70395;51.382;7.074;2024-02-14T10:14:06;13.10;71.80
80937;DHT22;70395;51.382;7.074;2024-02-14T10:16:35;13.10;71.90
80937;DHT22;70395;51.382;7.074;2024-02-14T10:19:01;13.10;71.90
80937;DHT22;70395;51.382;7.074;2024-02-14T10:21:30;13.10;71.70
80937;DHT22;70395;51.382;7.074;2024-02-14T10:24:01;13.10;71.90
80937;DHT22;70395;51.382;7.074;2024-02-14T10:26:29;13.10;71.90
80937;DHT22;70395;51.382;7.074;2024-02-14T10:28:57;13.10;72.30
80937;DHT22;70395;51.382;7.074;2024-02-14T10:31:26;13.10;72.30
80937;DHT22;70395;51.382;7.074;2024-02-14T10:33:55;13.10;72.50
80937;DHT22;70395;51.382;7.074;2024-02-14T10:36:24;13.20;72.60
80937;DHT22;70395;51.382;7.074;2024-02-14T10:38:50;13.20;72.60
80937;DHT22;70395;51.382;7.074;2024-02-14T10:41:17;13.20;72.40
80937;DHT22;70395;51.382;7.074;2024-02-14T10:43:43;13.30;72.50
80937;DHT22;70395;51.382;7.074;2024-02-14T10:46:22;13.30;72.20
80937;DHT22;70395;51.382;7.074;2024-02-14T10:48:54;13.40;72.20
80937;DHT22;70395;51.382;7.074;2024-02-14T10:51:25;13.40;72.20
80937;DHT22;70395;51.382;7.074;2024-02-14T10:53:57;13.40;72.10
80937;DHT22;70395;51.382;7.074;2024-02-14T10:56:28;13.40;72.00
80937;DHT22;70395;51.382;7.074;2024-02-14T10:58:56;13.40;72.70
80937;DHT22;70395;51.382;7.074;2024-02-14T11:01:27;13.50;72.90
80937;DHT22;70395;51.382;7.074;2024-02-14T11:03:58;13.40;72.50
80937;DHT22;70395;51.382;7.074;2024-02-14T11:06:26;13.40;72.60
80937;DHT22;70395;51.382;7.074;2024-02-14T11:09:02;13.40;72.60
80937;DHT22;70395;51.382;7.074;2024-02-14T11:11:33;13.40;72.90
80937;DHT22;70395;51.382;7.074;2024-02-14T11:13:59;13.40;73.00
80937;DHT22;70395;51.382;7.074;2024-02-14T11:16:28;13.40;73.00
80937;DHT22;70395;51.382;7.074;2024-02-14T11:19:07;13.40;73.00
80937;DHT22;70395;51.382;7.074;2024-02-14T11:21:46;13.30;73.10
80937;DHT22;70395;51.382;7.074;2024-02-14T11:24:15;13.40;73.50
80937;DHT22;70395;51.382;7.074;2024-02-14T11:26:50;13.30;73.30
80937;DHT22;70395;51.382;7.074;2024-02-14T11:29:18;13.40;73.60
80937;DHT22;70395;51.382;7.074;2024-02-14T11:31:45;13.40;73.70
80937;DHT22;70395;51.382;7.074;2024-02-14T11:34:14;13.40;73.60
80937;DHT22;70395;51.382;7.074;2024-02-14T11:36:45;13.40;73.70
80937;DHT22;70395;51.382;7.074;2024-02-14T11:39:11;13.50;73.60
80937;DHT22;70395;51.382;7.074;2024-02-14T11:41:40;13.50;73.60
80937;DHT22;70395;51.382;7.074;2024-02-14T11:44:08;13.50;73.50
80937;DHT22;70395;51.382;7.074;2024-02-14T11:46:35;13.60;73.50
80937;DHT22;70395;51.382;7.074;2024-02-14T11:49:04;13.60;73.50
80937;DHT22;70395;51.382;7.074;2024-02-14T11:51:34;13.70;73.60
80937;DHT22;70395;51.382;7.074;2024-02-14T11:54:04;13.70;73.60
80937;DHT22;70395;51.382;7.074;2024-02-14T11:56:38;13.80;73.50
80937;DHT22;70395;51.382;7.074;2024-02-14T11:59:06;13.80;73.70
80937;DHT22;70395;51.382;7.074;2024-02-14T12:01:34;13.90;73.60
80937;DHT22;70395;51.382;7.074;2024-02-14T12:04:04;13.90;73.40
80937;DHT22;70395;51.382;7.074;2024-02-14T12:06:34;13.90;73.10
80937;DHT22;70395;51.382;7.074;2024-02-14T12:09:04;13.90;73.80
80937;DHT22;70395;51.382;7.074;2024-02-14T12:11:35;14.00;73.10
80937;DHT22;70395;51.382;7.074;2024-02-14T12:14:09;14.00;73.00
80937;DHT22;70395;51.382;7.074;2024-02-14T12:16:38;14.10;72.90
80937;DHT22;70395;51.382;7.074;2024-02-14T12:19:07;14.10;72.80
80937;DHT22;70395;51.382;7.074;2024-02-14T12:21:38;14.10;72.80
80937;DHT22;70395;51.382;7.074;2024-02-14T12:24:12;14.20;72.80
80937;DHT22;70395;51.382;7.074;2024-02-14T12:26:41;14.20;72.70
80937;DHT22;70395;51.382;7.074;2024-02-14T12:29:10;14.30;72.60
80937;DHT22;70395;51.382;7.074;2024-02-14T12:31:38;14.30;72.70
80937;DHT22;70395;51.382;7.074;2024-02-14T12:34:04;14.30;72.90
80937;DHT22;70395;51.382;7.074;2024-02-14T12:36:30;14.40;73.30
80937;DHT22;70395;51.382;7.074;2024-02-14T12:38:59;14.40;73.20
80937;DHT22;70395;51.382;7.074;2024-02-14T12:41:28;14.50;73.30
80937;DHT22;70395;51.382;7.074;2024-02-14T12:43:55;14.50;73.40
80937;DHT22;70395;51.382;7.074;2024-02-14T12:46:22;14.60;73.30
80937;DHT22;70395;51.382;7.074;2024-02-14T12:48:48;14.60;73.10
80937;DHT22;70395;51.382;7.074;2024-02-14T12:51:14;14.60;73.00
80937;DHT22;70395;51.382;7.074;2024-02-14T12:53:40;14.60;73.10
80937;DHT22;70395;51.382;7.074;2024-02-14T12:56:07;14.60;73.00
80937;DHT22;70395;51.382;7.074;2024-02-14T12:58:33;14.70;73.10
80937;DHT22;70395;51.382;7.074;2024-02-14T13:01:00;14.70;73.20
80937;DHT22;70395;51.382;7.074;2024-02-14T13:03:27;14.70;73.10
80937;DHT22;70395;51.382;7.074;2024-02-14T13:05:55;14.70;73.10
80937;DHT22;70395;51.382;7.074;2024-02-14T13:08:21;14.60;73.30
80937;DHT22;70395;51.382;7.074;2024-02-14T13:10:49;14.60;73.30
80937;DHT22;70395;51.382;7.074;2024-02-14T13:13:15;14.60;73.20
80937;DHT22;70395;51.382;7.074;2024-02-14T13:15:41;14.60;73.40
80937;DHT22;70395;51.382;7.074;2024-02-14T13:18:08;14.60;73.40
80937;DHT22;70395;51.382;7.074;2024-02-14T13:20:35;14.60;73.40
80937;DHT22;70395;51.382;7.074;2024-02-14T13:23:01;14.60;73.40
80937;DHT22;70395;51.382;7.074;2024-02-14T13:25:27;14.60;73.20
80937;DHT22;70395;51.382;7.074;2024-02-14T13:27:53;14.70;73.40
80937;DHT22;70395;51.382;7.074;2024-02-14T13:30:20;14.70;73.30
80937;DHT22;70395;51.382;7.074;2024-02-14T13:32:47;14.70;73.30
80937;DHT22;70395;51.382;7.074;2024-02-14T13:35:13;14.70;73.20
80937;DHT22;70395;51.382;7.074;2024-02-14T13:37:39;14.70;73.20
80937;DHT22;70395;51.382;7.074;2024-02-14T13:40:06;14.80;72.90
80937;DHT22;70395;51.382;7.074;2024-02-14T13:42:38;14.80;72.90
80937;DHT22;70395;51.382;7.074;2024-02-14T13:45:06;14.90;72.70
80937;DHT22;70395;51.382;7.074;2024-02-14T13:47:37;14.90;72.50
80937;DHT22;70395;51.382;7.074;2024-02-14T13:50:08;14.90;72.50
80937;DHT22;70395;51.382;7.074;2024-02-14T13:52:35;15.00;72.40
80937;DHT22;70395;51.382;7.074;2024-02-14T13:55:05;15.00;72.30
80937;DHT22;70395;51.382;7.074;2024-02-14T13:57:39;15.00;71.70
80937;DHT22;70395;51.382;7.074;2024-02-14T14:00:07;15.00;71.80
80937;DHT22;70395;51.382;7.074;2024-02-14T14:02:37;15.10;71.70
80937;DHT22;70395;51.382;7.074;2024-02-14T14:05:08;15.10;71.60
80937;DHT22;70395;51.382;7.074;2024-02-14T14:07:35;15.10;71.40
80937;DHT22;70395;51.382;7.074;2024-02-14T14:10:03;15.10;71.30
80937;DHT22;70395;51.382;7.074;2024-02-14T14:12:30;15.10;71.30
80937;DHT22;70395;51.382;7.074;2024-02-14T14:14:57;15.10;71.30
80937;DHT22;70395;51.382;7.074;2024-02-14T14:17:23;15.00;71.20
80937;DHT22;70395;51.382;7.074;2024-02-14T14:19:49;15.00;71.30
80937;DHT22;70395;51.382;7.074;2024-02-14T14:22:16;15.00;71.40
80937;DHT22;70395;51.382;7.074;2024-02-14T14:24:42;15.00;71.40
80937;DHT22;70395;51.382;7.074;2024-02-14T14:27:08;15.00;72.20
80937;DHT22;70395;51.382;7.074;2024-02-14T14:29:39;15.00;71.40
80937;DHT22;70395;51.382;7.074;2024-02-14T14:32:08;15.00;71.60
80937;DHT22;70395;51.382;7.074;2024-02-14T14:34:35;15.00;71.70
80937;DHT22;70395;51.382;7.074;2024-02-14T14:37:04;15.00;72.00
80937;DHT22;70395;51.382;7.074;2024-02-14T14:39:31;14.90;72.00
80937;DHT22;70395;51.382;7.074;2024-02-14T14:41:57;14.90;72.20
80937;DHT22;70395;51.382;7.074;2024-02-14T14:44:27;14.80;72.40
80937;DHT22;70395;51.382;7.074;2024-02-14T14:46:53;14.80;72.70
80937;DHT22;70395;51.382;7.074;2024-02-14T14:49:19;14.80;72.80
80937;DHT22;70395;51.382;7.074;2024-02-14T14:51:46;14.70;72.70
80937;DHT22;70395;51.382;7.074;2024-02-14T14:54:12;14.70;73.00
80937;DHT22;70395;51.382;7.074;2024-02-14T14:56:38;14.60;73.00
80937;DHT22;70395;51.382;7.074;2024-02-14T14:59:03;14.60;73.20
80937;DHT22;70395;51.382;7.074;2024-02-14T15:01:32;14.60;73.50
80937;DHT22;70395;51.382;7.074;2024-02-14T15:04:02;14.50;73.80
80937;DHT22;70395;51.382;7.074;2024-02-14T15:06:31;14.50;74.00
80937;DHT22;70395;51.382;7.074;2024-02-14T15:08:57;14.50;74.20
80937;DHT22;70395;51.382;7.074;2024-02-14T15:11:23;14.40;74.30
80937;DHT22;70395;51.382;7.074;2024-02-14T15:13:49;14.40;74.40
80937;DHT22;70395;51.382;7.074;2024-02-14T15:16:15;14.40;74.60
80937;DHT22;70395;51.382;7.074;2024-02-14T15:18:41;14.30;74.80
80937;DHT22;70395;51.382;7.074;2024-02-14T15:21:10;14.30;75.20
80937;DHT22;70395;51.382;7.074;2024-02-14T15:23:36;14.30;75.40
80937;DHT22;70395;51.382;7.074;2024-02-14T15:26:02;14.30;75.70
80937;DHT22;70395;51.382;7.074;2024-02-14T15:28:29;14.20;75.50
80937;DHT22;70395;51.382;7.074;2024-02-14T15:30:56;14.20;75.60